Time;durP1;ratioP1;P1;durP2;ratioP2;P2;SDS_P1;SDS_P2;PMS_P1;PMS_P2;Temp;Humidity;BMP_temperature;BMP_pressure;BME280_temperature;BME280_humidity;BME280_pressure;Samples;Min_cycle;Max_cycle;Signal;HPM_P1;HPM_P2
2023/05/05 00:01:38;;;;;;;21.40;14.15;;;10.50;99.90;;;;;;4981667;28;20134;-70
2023/05/05 00:04:03;;;;;;;21.13;14.77;;;10.50;99.90;;;;;;4985197;28;20109;-70
2023/05/05 00:06:30;;;;;;;22.77;14.93;;;10.60;99.90;;;;;;4986128;28;20471;-70
2023/05/05 00:08:55;;;;;;;30.13;14.55;;;10.70;99.90;;;;;;4987570;28;20042;-70
2023/05/05 00:11:21;;;;;;;22.27;14.20;;;10.70;99.90;;;;;;4987901;28;20679;-70
2023/05/05 00:13:47;;;;;;;23.95;13.85;;;10.60;99.90;;;;;;4987903;28;20503;-70
2023/05/05 00:16:13;;;;;;;18.27;13.25;;;10.70;99.90;;;;;;4986022;28;20078;-70
2023/05/05 00:18:39;;;;;;;22.65;13.32;;;10.70;99.90;;;;;;4983843;28;20081;-70
2023/05/05 00:21:04;;;;;;;14.52;12.85;;;10.80;99.90;;;;;;4988799;28;20074;-70
2023/05/05 00:23:36;;;;;;;21.95;14.02;;;10.70;99.90;;;;;;4978866;28;20046;-70
2023/05/05 00:26:01;;;;;;;17.15;12.85;;;10.80;99.90;;;;;;4982262;28;20582;-70
2023/05/05 00:28:27;;;;;;;18.88;13.43;;;10.80;99.90;;;;;;4987277;28;20137;-71
2023/05/05 00:30:53;;;;;;;16.85;14.18;;;10.80;99.90;;;;;;4988619;28;20736;-70
2023/05/05 00:33:18;;;;;;;23.98;13.93;;;10.80;99.90;;;;;;4989173;28;20482;-70
2023/05/05 00:35:44;;;;;;;38.83;14.38;;;10.80;99.90;;;;;;4985350;28;20047;-70
2023/05/05 00:38:10;;;;;;;16.85;13.20;;;10.80;99.90;;;;;;4977921;28;20085;-70
2023/05/05 00:40:36;;;;;;;18.80;13.73;;;10.70;99.90;;;;;;4989450;28;20833;-70
2023/05/05 00:43:02;;;;;;;22.63;13.35;;;10.80;99.90;;;;;;4987760;28;20109;-70
2023/05/05 00:45:29;;;;;;;22.30;12.23;;;10.70;99.90;;;;;;4965626;28;20476;-70
2023/05/05 00:47:57;;;;;;;20.83;15.05;;;10.70;99.90;;;;;;4987725;28;20057;-70
2023/05/05 00:50:28;;;;;;;20.77;14.27;;;10.70;99.90;;;;;;4983627;28;20423;-70
2023/05/05 00:53:05;;;;;;;16.98;13.63;;;10.80;99.90;;;;;;4982179;28;20125;-71
2023/05/05 00:55:32;;;;;;;20.60;13.15;;;10.80;99.90;;;;;;4988569;28;20066;-70
2023/05/05 00:57:59;;;;;;;17.05;13.02;;;10.80;99.90;;;;;;4981971;28;20407;-70
2023/05/05 01:00:26;;;;;;;30.17;14.05;;;10.80;99.90;;;;;;4990237;28;20082;-70
2023/05/05 01:02:52;;;;;;;16.80;13.45;;;10.80;99.90;;;;;;4987185;28;20127;-70
2023/05/05 01:05:20;;;;;;;18.10;13.35;;;10.80;99.90;;;;;;4986396;28;20492;-70
2023/05/05 01:07:57;;;;;;;14.90;12.90;;;10.70;99.90;;;;;;4988313;28;21249;-70
2023/05/05 01:10:34;;;;;;;18.05;13.90;;;10.70;99.90;;;;;;4987831;28;20077;-70
2023/05/05 01:13:22;;;;;;;16.90;13.30;;;10.70;99.90;;;;;;4990995;28;20117;-70
2023/05/05 01:15:56;;;;;;;23.30;14.13;;;10.70;99.90;;;;;;4958735;28;20047;-70
2023/05/05 01:18:44;;;;;;;21.33;14.30;;;10.60;99.90;;;;;;4988303;28;20117;-70
2023/05/05 01:21:22;;;;;;;18.20;13.55;;;10.50;99.90;;;;;;4991338;28;20096;-70
2023/05/05 01:24:15;;;;;;;19.02;13.30;;;10.50;99.90;;;;;;4987943;28;20481;-70
2023/05/05 01:27:10;;;;;;;20.95;13.50;;;10.50;99.90;;;;;;4976400;28;20049;-70
2023/05/05 01:30:09;;;;;;;20.63;13.73;;;10.50;99.90;;;;;;4989112;28;20118;-70
2023/05/05 01:32:39;;;;;;;19.00;13.07;;;10.60;99.90;;;;;;4990361;28;20125;-70
2023/05/05 01:35:20;;;;;;;24.58;14.10;;;10.60;99.90;;;;;;4989288;28;20062;-70
2023/05/05 01:37:56;;;;;;;17.05;13.65;;;10.60;99.90;;;;;;4989111;28;20061;-70
2023/05/05 01:40:26;;;;;;;23.10;14.75;;;10.60;99.90;;;;;;4989991;28;20073;-70
2023/05/05 01:42:54;;;;;;;28.17;14.32;;;10.70;99.90;;;;;;4985960;28;20046;-70
2023/05/05 01:45:23;;;;;;;19.83;15.10;;;10.70;99.90;;;;;;4985097;28;20156;-70
2023/05/05 01:47:52;;;;;;;23.83;14.80;;;10.60;99.90;;;;;;4989287;28;20516;-70
2023/05/05 01:50:19;;;;;;;18.13;14.10;;;10.70;99.90;;;;;;4984264;28;20038;-70
2023/05/05 01:52:45;;;;;;;20.20;14.38;;;10.70;99.90;;;;;;4989040;28;20042;-70
2023/05/05 01:55:14;;;;;;;19.38;13.82;;;10.70;99.90;;;;;;4982303;28;20419;-70
2023/05/05 01:57:41;;;;;;;20.52;14.07;;;10.70;99.90;;;;;;4982261;28;20389;-70
2023/05/05 02:00:08;;;;;;;19.67;13.60;;;10.70;99.90;;;;;;4986074;28;20118;-70
2023/05/05 02:02:36;;;;;;;18.85;12.80;;;10.70;99.90;;;;;;4989200;28;20464;-70
2023/05/05 02:05:04;;;;;;;20.33;13.98;;;10.70;99.90;;;;;;4987453;28;20051;-70
2023/05/05 02:07:32;;;;;;;16.55;14.80;;;10.70;99.90;;;;;;4967026;28;20092;-70
2023/05/05 02:09:59;;;;;;;18.08;12.52;;;10.70;99.90;;;;;;4984685;28;20046;-70
2023/05/05 02:12:29;;;;;;;18.00;13.15;;;10.70;99.90;;;;;;4968510;28;20093;-70
2023/05/05 02:14:57;;;;;;;21.25;14.90;;;10.60;99.90;;;;;;4983643;28;20086;-70
2023/05/05 02:17:25;;;;;;;21.42;14.60;;;10.60;99.90;;;;;;4982686;28;20103;-70
2023/05/05 02:19:51;;;;;;;27.13;15.93;;;10.60;99.90;;;;;;4984601;28;20052;-70
2023/05/05 02:22:17;;;;;;;18.90;13.93;;;10.60;99.90;;;;;;4986488;28;20069;-70
2023/05/05 02:24:43;;;;;;;22.85;15.32;;;10.70;99.90;;;;;;4986444;28;20496;-70
2023/05/05 02:27:11;;;;;;;17.80;14.43;;;10.60;99.90;;;;;;4984462;28;20042;-70
2023/05/05 02:29:51;;;;;;;18.90;15.82;;;10.60;99.90;;;;;;4983385;28;20050;-70
2023/05/05 02:32:25;;;;;;;22.27;15.05;;;10.60;99.90;;;;;;4982316;28;20054;-70
2023/05/05 02:34:52;;;;;;;18.98;14.63;;;10.50;99.90;;;;;;4980837;28;20069;-70
2023/05/05 02:37:22;;;;;;;22.98;15.80;;;10.60;99.90;;;;;;4984880;28;20403;-70
2023/05/05 02:39:57;;;;;;;18.20;14.10;;;10.60;99.90;;;;;;4984742;28;20038;-70
2023/05/05 02:42:28;;;;;;;20.05;14.13;;;10.60;99.90;;;;;;4981324;28;20047;-70
2023/05/05 02:44:57;;;;;;;18.85;14.63;;;10.70;99.90;;;;;;4984526;28;20711;-70
2023/05/05 02:47:32;;;;;;;19.38;14.15;;;10.70;99.90;;;;;;4968967;28;20476;-70
2023/05/05 02:50:01;;;;;;;22.38;13.73;;;10.70;99.90;;;;;;4984154;28;20125;-70
2023/05/05 02:52:27;;;;;;;16.80;12.88;;;10.70;99.90;;;;;;4983921;28;20066;-70
2023/05/05 02:54:52;;;;;;;22.63;14.63;;;10.70;99.90;;;;;;4984662;28;20054;-70
2023/05/05 02:57:19;;;;;;;19.60;15.57;;;10.60;99.90;;;;;;4984110;28;20050;-70
2023/05/05 03:00:01;;;;;;;23.30;15.25;;;10.70;99.90;;;;;;4983991;28;20042;-70
2023/05/05 03:02:41;;;;;;;17.30;12.88;;;10.60;99.90;;;;;;4985563;28;20046;-70
2023/05/05 03:05:16;;;;;;;14.38;12.90;;;10.60;99.90;;;;;;4983967;28;20061;-70
2023/05/05 03:08:19;;;;;;;21.05;14.45;;;10.70;99.90;;;;;;4985129;28;20555;-70
2023/05/05 03:11:05;;;;;;;19.02;13.70;;;10.70;99.90;;;;;;4979147;28;20042;-70
2023/05/05 03:13:39;;;;;;;19.63;13.88;;;10.70;99.90;;;;;;4981374;28;20065;-70
2023/05/05 03:16:06;;;;;;;18.67;13.98;;;10.70;99.90;;;;;;4984133;28;20492;-70
2023/05/05 03:18:33;;;;;;;16.65;13.65;;;10.70;99.90;;;;;;4980399;28;20047;-70
2023/05/05 03:21:07;;;;;;;16.92;12.95;;;10.70;99.90;;;;;;4981060;28;20925;-71
2023/05/05 03:23:35;;;;;;;16.95;12.90;;;10.70;99.90;;;;;;4984752;28;20039;-71
2023/05/05 03:26:01;;;;;;;;;;;10.70;99.90;;;;;;4988503;28;20042;-71
2023/05/05 03:28:27;;;;;;;17.77;14.30;;;10.60;99.90;;;;;;4984897;28;19922;-70
2023/05/05 03:30:54;;;;;;;17.73;13.50;;;10.50;99.90;;;;;;4981341;28;20082;-70
2023/05/05 03:33:19;;;;;;;26.02;14.65;;;10.50;99.90;;;;;;4983403;28;20045;-70
2023/05/05 03:35:45;;;;;;;19.67;14.48;;;10.40;99.90;;;;;;4982329;28;20042;-70
2023/05/05 03:38:11;;;;;;;21.33;13.45;;;10.30;99.90;;;;;;4981132;28;20050;-70
2023/05/05 03:40:36;;;;;;;22.65;14.98;;;10.10;99.90;;;;;;4983619;28;20403;-70
2023/05/05 03:43:02;;;;;;;17.25;13.23;;;10.00;99.90;;;;;;4981767;28;20054;-70
2023/05/05 03:45:28;;;;;;;17.63;14.60;;;9.90;99.90;;;;;;4983982;28;20411;-70
2023/05/05 03:47:53;;;;;;;23.23;15.02;;;9.80;99.90;;;;;;4984738;28;20046;-70
2023/05/05 03:50:21;;;;;;;19.13;12.98;;;9.80;99.90;;;;;;4983176;28;20050;-70
2023/05/05 03:52:46;;;;;;;31.13;13.88;;;9.80;99.90;;;;;;4984324;28;20054;-70
2023/05/05 03:55:12;;;;;;;18.65;14.40;;;9.70;99.90;;;;;;4985431;28;20049;-70
2023/05/05 03:57:38;;;;;;;20.95;15.65;;;9.80;99.90;;;;;;4985810;28;20116;-71
2023/05/05 04:00:04;;;;;;;18.92;14.38;;;9.80;99.90;;;;;;4983771;28;20042;-70
2023/05/05 04:02:30;;;;;;;19.58;14.45;;;9.90;99.90;;;;;;4981629;28;20050;-70
2023/05/05 04:04:56;;;;;;;16.75;13.95;;;9.90;99.90;;;;;;4981319;28;20062;-70
2023/05/05 04:07:22;;;;;;;17.10;14.70;;;9.90;99.90;;;;;;4982465;28;20050;-70
2023/05/05 04:09:48;;;;;;;18.17;14.25;;;10.00;99.90;;;;;;4979438;28;20056;-71
2023/05/05 04:12:14;;;;;;;19.60;14.77;;;10.10;99.90;;;;;;4982651;28;20046;-70
2023/05/05 04:14:39;;;;;;;25.25;13.63;;;10.10;99.90;;;;;;4981939;28;20062;-70
2023/05/05 04:17:05;;;;;;;21.48;15.25;;;10.10;99.90;;;;;;4982089;28;20105;-70
2023/05/05 04:19:31;;;;;;;20.20;15.27;;;10.30;99.90;;;;;;4980666;28;20057;-72
2023/05/05 04:21:57;;;;;;;30.38;16.25;;;10.20;99.90;;;;;;4987712;28;20117;-73
2023/05/05 04:24:23;;;;;;;22.35;16.73;;;10.30;99.90;;;;;;4984559;28;20050;-74
2023/05/05 04:26:51;;;;;;;29.85;18.20;;;10.30;99.90;;;;;;4985630;28;20533;-75
2023/05/05 04:29:16;;;;;;;32.13;17.73;;;10.30;99.90;;;;;;4979472;28;20054;-74
2023/05/05 04:31:43;;;;;;;26.38;17.60;;;10.20;99.90;;;;;;4986641;28;20088;-74
2023/05/05 04:34:08;;;;;;;22.10;16.42;;;10.20;99.90;;;;;;4989721;28;20062;-74
2023/05/05 04:36:34;;;;;;;21.20;15.10;;;10.20;99.90;;;;;;4976098;28;20053;-75
2023/05/05 04:38:59;;;;;;;21.20;15.98;;;10.20;99.90;;;;;;4985050;28;20041;-74
2023/05/05 04:41:25;;;;;;;21.50;15.98;;;10.20;99.90;;;;;;4986923;28;20096;-74
2023/05/05 04:43:53;;;;;;;24.25;15.65;;;10.30;99.90;;;;;;4990811;28;20108;-74
2023/05/05 04:46:20;;;;;;;21.73;14.20;;;10.30;99.90;;;;;;4987437;28;20125;-74
2023/05/05 04:48:46;;;;;;;20.42;15.95;;;10.30;99.90;;;;;;4986677;28;20050;-73
2023/05/05 04:51:12;;;;;;;21.50;18.05;;;10.30;99.90;;;;;;4985130;28;20030;-74
2023/05/05 04:53:38;;;;;;;23.00;17.58;;;10.20;99.90;;;;;;4985800;28;20121;-74
2023/05/05 04:56:04;;;;;;;22.98;17.27;;;10.20;99.90;;;;;;4980956;28;20042;-74
2023/05/05 04:58:30;;;;;;;20.85;17.23;;;10.20;99.90;;;;;;4987135;28;20392;-74
2023/05/05 05:00:57;;;;;;;25.50;17.75;;;10.20;99.90;;;;;;4985480;28;20137;-74
2023/05/05 05:03:23;;;;;;;25.50;16.50;;;10.20;99.90;;;;;;4980415;28;20148;-75
2023/05/05 05:05:49;;;;;;;27.77;16.73;;;10.20;99.90;;;;;;4980250;28;20054;-74
2023/05/05 05:08:16;;;;;;;27.15;18.20;;;10.20;99.90;;;;;;4979712;28;20046;-75
2023/05/05 05:10:42;;;;;;;20.92;17.38;;;10.20;99.90;;;;;;4988513;28;20185;-75
2023/05/05 05:13:08;;;;;;;27.60;17.80;;;10.20;99.90;;;;;;4990508;28;20046;-75
2023/05/05 05:15:38;;;;;;;24.02;16.95;;;10.20;99.90;;;;;;4988815;28;20061;-75
2023/05/05 05:18:04;;;;;;;21.27;17.92;;;10.10;99.90;;;;;;4986036;28;20416;-75
2023/05/05 05:20:30;;;;;;;23.13;17.83;;;10.10;99.90;;;;;;4986059;28;20041;-75
2023/05/05 05:22:56;;;;;;;21.65;17.75;;;10.10;99.90;;;;;;4990573;28;20058;-75
2023/05/05 05:25:23;;;;;;;25.05;17.27;;;10.10;99.90;;;;;;4989033;28;20049;-75
2023/05/05 05:27:49;;;;;;;38.63;20.08;;;10.20;99.90;;;;;;4988350;28;20049;-75
2023/05/05 05:30:15;;;;;;;28.52;18.02;;;10.20;99.90;;;;;;4986400;28;20058;-75
2023/05/05 05:32:40;;;;;;;24.48;18.15;;;10.20;99.90;;;;;;4982292;28;20049;-74
2023/05/05 05:35:06;;;;;;;24.98;18.83;;;10.20;99.90;;;;;;4987869;28;20055;-74
2023/05/05 05:37:33;;;;;;;22.75;17.13;;;10.30;99.90;;;;;;4976900;28;20063;-74
2023/05/05 05:39:59;;;;;;;23.52;17.60;;;10.30;99.90;;;;;;4980188;28;20047;-74
2023/05/05 05:42:25;;;;;;;24.15;17.48;;;10.40;99.90;;;;;;4984250;28;20093;-74
2023/05/05 05:44:50;;;;;;;23.52;17.83;;;10.40;99.90;;;;;;4982029;28;20388;-74
2023/05/05 05:47:16;;;;;;;26.77;17.67;;;10.40;99.90;;;;;;4989678;28;20419;-74
2023/05/05 05:49:42;;;;;;;23.70;18.20;;;10.50;99.90;;;;;;4986927;28;20693;-74
2023/05/05 05:52:07;;;;;;;29.70;17.95;;;10.50;99.90;;;;;;4989359;28;20046;-74
2023/05/05 05:54:34;;;;;;;25.55;17.88;;;10.60;99.90;;;;;;4987506;28;20126;-74
2023/05/05 05:57:01;;;;;;;22.48;17.80;;;10.60;99.90;;;;;;4984227;28;20082;-74
2023/05/05 05:59:27;;;;;;;28.23;18.08;;;10.60;99.90;;;;;;4988156;28;20141;-74
2023/05/05 06:01:53;;;;;;;21.25;16.92;;;10.70;99.90;;;;;;4980461;28;20121;-75
2023/05/05 06:04:19;;;;;;;23.95;18.48;;;10.80;99.90;;;;;;4987293;28;20053;-74
2023/05/05 06:06:45;;;;;;;30.73;19.92;;;10.80;99.90;;;;;;4986013;28;20415;-75
2023/05/05 06:09:10;;;;;;;20.50;17.60;;;10.80;99.90;;;;;;4983449;28;20046;-75
2023/05/05 06:11:36;;;;;;;27.52;18.25;;;10.80;99.90;;;;;;4981729;28;20050;-75
2023/05/05 06:14:02;;;;;;;22.05;17.73;;;10.90;99.90;;;;;;4985581;28;20050;-75
2023/05/05 06:16:28;;;;;;;25.90;19.27;;;10.80;99.90;;;;;;4989488;28;20081;-75
2023/05/05 06:18:54;;;;;;;21.80;17.33;;;10.80;99.90;;;;;;4987295;28;20132;-74
2023/05/05 06:21:20;;;;;;;28.58;17.63;;;10.90;99.90;;;;;;4982446;28;20137;-75
2023/05/05 06:23:46;;;;;;;21.02;18.00;;;10.90;99.90;;;;;;4988178;28;20069;-75
2023/05/05 06:26:12;;;;;;;23.80;17.77;;;11.00;99.90;;;;;;4987624;28;20073;-74
2023/05/05 06:28:38;;;;;;;28.10;18.27;;;11.00;99.90;;;;;;4988356;28;20593;-74
2023/05/05 06:31:03;;;;;;;24.55;18.50;;;11.10;99.90;;;;;;4985102;28;20050;-74
2023/05/05 06:33:29;;;;;;;29.35;18.83;;;11.20;99.90;;;;;;4988821;28;20808;-75
2023/05/05 06:35:55;;;;;;;22.77;17.33;;;11.30;99.90;;;;;;4990440;28;20491;-75
2023/05/05 06:38:21;;;;;;;35.90;18.80;;;11.40;99.90;;;;;;4982257;28;20125;-74
2023/05/05 06:40:48;;;;;;;32.03;19.33;;;11.40;99.90;;;;;;4989133;28;20045;-73
2023/05/05 06:43:15;;;;;;;24.95;17.52;;;11.50;99.90;;;;;;4976665;28;20407;-72
2023/05/05 06:45:41;;;;;;;25.05;18.80;;;11.60;99.90;;;;;;4972559;28;20050;-72
2023/05/05 06:48:07;;;;;;;25.23;18.67;;;11.60;99.90;;;;;;4985522;28;20065;-72
2023/05/05 06:50:36;;;;;;;32.30;18.92;;;11.70;99.90;;;;;;4989065;28;20038;-72
2023/05/05 06:53:01;;;;;;;23.33;19.02;;;11.70;99.90;;;;;;4984691;28;20049;-75
2023/05/05 06:55:27;;;;;;;21.48;17.92;;;11.70;99.90;;;;;;4983515;28;20534;-75
2023/05/05 06:57:52;;;;;;;22.02;17.25;;;11.70;99.90;;;;;;4978863;28;20045;-74
2023/05/05 07:00:18;;;;;;;23.60;17.80;;;11.70;99.90;;;;;;4978744;28;20046;-74
2023/05/05 07:02:46;;;;;;;24.55;18.50;;;11.80;99.90;;;;;;4968099;28;20042;-74
2023/05/05 07:05:11;;;;;;;20.57;18.00;;;11.80;99.90;;;;;;4987224;28;20483;-75
2023/05/05 07:07:37;;;;;;;23.25;18.50;;;11.90;99.90;;;;;;4988458;28;20048;-75
2023/05/05 07:10:03;;;;;;;25.75;17.90;;;11.90;99.90;;;;;;4985079;28;20050;-75
2023/05/05 07:12:30;;;;;;;24.60;18.95;;;11.90;99.90;;;;;;4973301;28;20050;-74
2023/05/05 07:14:56;;;;;;;22.05;16.60;;;11.90;99.90;;;;;;4981525;28;20074;-75
2023/05/05 07:17:21;;;;;;;27.67;17.70;;;12.00;99.90;;;;;;4976004;28;20129;-75
2023/05/05 07:19:47;;;;;;;24.45;20.48;;;12.00;99.90;;;;;;4980083;28;20465;-75
2023/05/05 07:22:13;;;;;;;26.92;18.00;;;12.10;99.90;;;;;;4987375;28;20156;-75
2023/05/05 07:24:40;;;;;;;23.05;18.40;;;12.20;99.90;;;;;;4984186;28;20038;-75
2023/05/05 07:27:06;;;;;;;23.75;20.63;;;12.30;99.90;;;;;;4984750;28;20050;-76
2023/05/05 07:29:31;;;;;;;26.80;19.15;;;12.40;99.90;;;;;;4988399;28;20080;-76
2023/05/05 07:31:57;;;;;;;29.40;18.88;;;12.70;99.90;;;;;;4989309;28;20480;-76
2023/05/05 07:34:22;;;;;;;25.55;19.73;;;12.80;99.90;;;;;;4986126;28;20056;-76
2023/05/05 07:36:48;;;;;;;24.70;20.23;;;13.00;99.90;;;;;;4988188;28;20054;-76
2023/05/05 07:39:14;;;;;;;28.58;20.52;;;13.20;99.90;;;;;;4983571;28;20503;-76
2023/05/05 07:41:43;;;;;;;26.92;20.08;;;13.30;99.90;;;;;;4976446;28;20133;-76
2023/05/05 07:44:08;;;;;;;26.05;21.25;;;13.50;99.90;;;;;;4988961;28;20389;-76
2023/05/05 07:46:35;;;;;;;26.92;19.70;;;13.60;99.90;;;;;;4988505;28;20049;-76
2023/05/05 07:49:01;;;;;;;26.73;20.13;;;13.80;99.90;;;;;;4988873;28;20192;-76
2023/05/05 07:51:28;;;;;;;24.17;21.58;;;14.00;99.90;;;;;;4989197;28;20470;-76
2023/05/05 07:53:54;;;;;;;25.03;19.50;;;14.10;99.90;;;;;;4988858;28;20384;-76
2023/05/05 07:56:20;;;;;;;23.52;20.35;;;14.30;99.90;;;;;;4985117;28;20415;-76
2023/05/05 07:58:46;;;;;;;22.77;20.27;;;14.30;99.90;;;;;;4988192;28;20050;-77
2023/05/05 08:01:12;;;;;;;27.48;19.73;;;14.30;99.90;;;;;;4986622;28;20050;-76
2023/05/05 08:03:37;;;;;;;28.08;20.73;;;14.40;99.90;;;;;;4988805;28;20439;-76
2023/05/05 08:06:08;;;;;;;24.30;20.08;;;14.60;99.90;;;;;;4989935;28;20050;-76
2023/05/05 08:08:34;;;;;;;27.50;21.25;;;14.80;99.90;;;;;;4989570;28;20065;-76
2023/05/05 08:11:00;;;;;;;24.08;20.52;;;14.90;99.90;;;;;;4988706;28;20133;-76
2023/05/05 08:13:26;;;;;;;27.25;21.42;;;15.20;99.90;;;;;;4989702;28;20622;-75
2023/05/05 08:15:52;;;;;;;34.03;20.63;;;15.30;99.90;;;;;;4991124;28;20389;-75
2023/05/05 08:18:18;;;;;;;29.85;21.13;;;15.50;99.90;;;;;;4991933;28;20518;-76
2023/05/05 08:20:44;;;;;;;28.10;21.65;;;15.60;99.90;;;;;;4991664;28;20517;-76
2023/05/05 08:23:09;;;;;;;28.83;23.98;;;15.60;99.90;;;;;;4990847;28;20132;-76
2023/05/05 08:25:35;;;;;;;29.20;21.33;;;15.80;99.90;;;;;;4985975;28;20512;-75
2023/05/05 08:28:01;;;;;;;25.38;20.10;;;16.00;99.90;;;;;;4986152;28;20038;-75
2023/05/05 08:30:27;;;;;;;24.42;20.77;;;16.30;99.90;;;;;;4984697;28;20046;-75
2023/05/05 08:32:53;;;;;;;30.48;22.20;;;16.40;99.90;;;;;;4991479;28;20085;-75
2023/05/05 08:35:18;;;;;;;27.83;21.80;;;16.50;99.90;;;;;;4991714;28;20073;-75
2023/05/05 08:37:44;;;;;;;26.60;23.13;;;16.50;99.90;;;;;;4986527;28;20061;-75
2023/05/05 08:40:13;;;;;;;24.65;21.98;;;16.50;99.90;;;;;;4984373;28;20071;-76
2023/05/05 08:42:39;;;;;;;26.30;22.20;;;16.40;99.90;;;;;;4988086;28;20125;-75
2023/05/05 08:45:09;;;;;;;33.45;23.48;;;16.50;99.90;;;;;;4979911;28;20054;-75
2023/05/05 08:47:36;;;;;;;33.67;21.63;;;16.70;99.90;;;;;;4987481;28;20068;-75
2023/05/05 08:50:04;;;;;;;37.58;25.33;;;16.80;99.90;;;;;;4990879;28;20061;-75
2023/05/05 08:52:38;;;;;;;25.98;23.10;;;17.10;99.90;;;;;;4991223;28;20085;-75
2023/05/05 08:55:22;;;;;;;30.58;24.77;;;17.20;99.90;;;;;;4991288;28;20042;-75
2023/05/05 08:57:56;;;;;;;33.42;22.17;;;17.30;99.90;;;;;;4991795;28;20053;-75
2023/05/05 09:00:23;;;;;;;30.90;22.70;;;17.30;99.90;;;;;;4989285;28;20034;-75
2023/05/05 09:02:49;;;;;;;29.20;23.23;;;17.60;99.90;;;;;;4989219;28;20499;-75
2023/05/05 09:05:15;;;;;;;28.65;25.58;;;17.70;99.90;;;;;;4968560;28;20042;-74
2023/05/05 09:07:42;;;;;;;29.70;23.98;;;17.80;99.90;;;;;;4990701;28;20050;-75
2023/05/05 09:10:09;;;;;;;38.38;26.05;;;18.00;99.90;;;;;;4991227;28;20050;-74
2023/05/05 09:12:39;;;;;;;30.55;24.70;;;18.20;99.90;;;;;;4991452;28;20050;-73
2023/05/05 09:15:13;;;;;;;27.98;24.90;;;18.40;99.90;;;;;;4991112;28;20054;-73
2023/05/05 09:17:41;;;;;;;32.35;26.80;;;18.40;99.90;;;;;;4982525;28;20058;-74
2023/05/05 09:20:08;;;;;;;;;;;18.40;99.90;;;;;;4990911;28;20049;-74
2023/05/05 09:22:44;;;;;;;33.92;25.30;;;18.20;99.90;;;;;;4988006;28;19921;-73
2023/05/05 09:25:15;;;;;;;39.15;27.88;;;18.00;99.90;;;;;;4990838;28;20054;-73
2023/05/05 09:27:48;;;;;;;32.85;26.85;;;18.00;99.90;;;;;;4992457;28;20038;-74
2023/05/05 09:30:23;;;;;;;33.47;27.58;;;17.90;99.90;;;;;;4990563;28;20733;-74
2023/05/05 09:32:53;;;;;;;36.20;25.65;;;18.20;99.90;;;;;;4991379;28;20046;-74
2023/05/05 09:35:20;;;;;;;32.35;26.52;;;18.40;99.90;;;;;;4990449;28;20057;-74
2023/05/05 09:37:46;;;;;;;29.50;25.50;;;18.80;99.90;;;;;;4987566;28;20122;-75
2023/05/05 09:40:13;;;;;;;32.00;25.17;;;19.10;99.90;;;;;;4985742;28;20384;-74
2023/05/05 09:42:40;;;;;;;36.30;25.40;;;19.30;99.90;;;;;;4990249;28;20040;-75
2023/05/05 09:45:18;;;;;;;28.92;24.80;;;19.60;99.90;;;;;;4990212;28;20046;-74
2023/05/05 09:47:45;;;;;;;34.22;26.48;;;19.80;99.90;;;;;;4988807;28;20042;-74
2023/05/05 09:50:14;;;;;;;29.00;24.98;;;19.70;99.90;;;;;;4987221;28;20046;-75
2023/05/05 09:53:01;;;;;;;33.35;26.92;;;19.90;99.90;;;;;;4990700;28;20129;-75
2023/05/05 09:55:27;;;;;;;35.03;28.70;;;19.90;99.90;;;;;;4988629;28;20113;-75
2023/05/05 09:57:53;;;;;;;30.73;24.02;;;20.00;99.90;;;;;;4990712;28;20057;-75
2023/05/05 10:00:19;;;;;;;30.20;25.50;;;20.30;99.90;;;;;;4985638;28;20447;-76
2023/05/05 10:02:45;;;;;;;37.58;27.50;;;20.70;99.90;;;;;;4985617;28;20541;-75
2023/05/05 10:05:16;;;;;;;28.60;23.50;;;21.00;99.90;;;;;;4988539;28;20042;-75
2023/05/05 10:07:43;;;;;;;30.35;21.30;;;21.20;99.90;;;;;;4985922;28;20042;-76
2023/05/05 10:10:12;;;;;;;36.63;23.80;;;21.50;99.90;;;;;;4977113;28;20126;-75
2023/05/05 10:12:38;;;;;;;27.27;22.25;;;21.70;99.90;;;;;;4979678;28;20054;-76
2023/05/05 10:15:05;;;;;;;28.55;23.17;;;21.90;97.50;;;;;;4991760;28;20038;-75
2023/05/05 10:17:34;;;;;;;31.02;23.05;;;22.20;96.50;;;;;;4988618;28;20084;-75
2023/05/05 10:20:03;;;;;;;28.48;23.15;;;22.30;95.70;;;;;;4990799;28;20050;-75
2023/05/05 10:22:33;;;;;;;23.85;21.10;;;22.40;95.70;;;;;;4990352;28;20141;-76
2023/05/05 10:25:14;;;;;;;34.08;23.25;;;22.60;95.00;;;;;;4987227;28;20058;-76
2023/05/05 10:27:50;;;;;;;30.45;19.65;;;22.80;92.60;;;;;;4979730;28;20042;-76
2023/05/05 10:30:18;;;;;;;27.65;21.58;;;23.00;93.30;;;;;;4988835;28;20050;-75
2023/05/05 10:32:48;;;;;;;30.38;23.50;;;23.00;92.10;;;;;;4990584;28;20114;-75
2023/05/05 10:35:22;;;;;;;27.83;21.83;;;22.90;90.00;;;;;;4987246;28;20574;-75
2023/05/05 10:37:48;;;;;;;32.72;21.48;;;23.00;90.50;;;;;;4990012;28;20830;-74
2023/05/05 10:40:14;;;;;;;23.48;19.58;;;23.20;91.00;;;;;;4990574;28;20046;-75
2023/05/05 10:42:40;;;;;;;26.75;20.52;;;23.30;91.10;;;;;;4984652;28;20049;-75
2023/05/05 10:45:07;;;;;;;25.75;21.48;;;23.50;90.70;;;;;;4987708;28;20042;-75
2023/05/05 10:47:34;;;;;;;30.70;21.38;;;23.50;87.30;;;;;;4988797;28;20097;-75
2023/05/05 10:50:10;;;;;;;35.25;20.95;;;23.50;86.60;;;;;;4988876;28;20069;-75
2023/05/05 10:52:54;;;;;;;33.80;21.80;;;23.50;87.70;;;;;;4980487;28;20467;-76
2023/05/05 10:55:29;;;;;;;26.13;21.15;;;23.50;88.80;;;;;;4977548;28;20056;-76
2023/05/05 10:57:55;;;;;;;33.05;21.90;;;23.50;87.70;;;;;;4989725;28;20046;-75
2023/05/05 11:00:39;;;;;;;26.00;20.38;;;23.60;90.00;;;;;;4987107;28;20117;-75
2023/05/05 11:03:25;;;;;;;27.67;21.50;;;23.80;87.40;;;;;;4986264;28;20055;-75
2023/05/05 11:06:03;;;;;;;29.45;20.98;;;24.00;84.40;;;;;;4986467;28;20109;-75
2023/05/05 11:08:44;;;;;;;30.77;19.77;;;24.10;81.60;;;;;;4982642;28;20061;-75
2023/05/05 11:11:11;;;;;;;19.42;16.20;;;24.10;82.10;;;;;;4989078;28;20173;-75
2023/05/05 11:13:38;;;;;;;23.63;20.80;;;24.00;79.00;;;;;;4987564;28;20047;-75
2023/05/05 11:16:25;;;;;;;25.00;15.05;;;24.00;78.20;;;;;;4984796;28;20054;-76
2023/05/05 11:18:50;;;;;;;21.08;15.93;;;24.00;80.00;;;;;;4989094;28;20042;-75
2023/05/05 11:21:17;;;;;;;20.02;14.27;;;23.90;79.80;;;;;;4984290;28;20050;-77
2023/05/05 11:23:47;;;;;;;19.80;15.23;;;23.90;81.10;;;;;;4989502;28;20043;-77
2023/05/05 11:26:13;;;;;;;15.95;12.45;;;23.90;80.10;;;;;;4978669;28;20038;-76
2023/05/05 11:29:00;;;;;;;15.57;12.30;;;23.90;77.60;;;;;;4985542;28;20058;-77
2023/05/05 11:31:26;;;;;;;18.20;14.10;;;23.90;75.80;;;;;;4988268;28;20050;-76
2023/05/05 11:33:52;;;;;;;14.85;11.93;;;23.80;75.70;;;;;;4988821;28;20233;-76
2023/05/05 11:36:19;;;;;;;19.33;15.73;;;23.80;76.10;;;;;;4990772;28;20225;-76
2023/05/05 11:39:04;;;;;;;17.85;14.23;;;23.80;76.90;;;;;;4990825;28;20456;-77
2023/05/05 11:41:43;;;;;;;21.92;17.20;;;23.80;78.00;;;;;;4976841;28;20778;-76
2023/05/05 11:44:12;;;;;;;22.23;15.57;;;23.90;77.20;;;;;;4987333;28;20169;-77
2023/05/05 11:46:39;;;;;;;24.27;15.60;;;23.90;76.70;;;;;;4987597;28;20165;-77
2023/05/05 11:49:06;;;;;;;17.55;13.77;;;23.90;75.50;;;;;;4985826;28;20056;-76
2023/05/05 11:51:32;;;;;;;17.52;14.48;;;23.90;76.20;;;;;;4988389;28;20046;-77
2023/05/05 11:53:58;;;;;;;23.67;12.23;;;23.90;75.10;;;;;;4987620;28;20046;-77
2023/05/05 11:56:25;;;;;;;25.38;13.05;;;23.90;76.50;;;;;;4988270;28;20085;-77
2023/05/05 11:59:09;;;;;;;13.03;11.70;;;23.90;75.90;;;;;;4985369;28;20077;-77
2023/05/05 12:01:40;;;;;;;17.67;12.80;;;23.80;75.80;;;;;;4987580;28;20411;-77
2023/05/05 12:04:06;;;;;;;15.10;10.73;;;23.70;76.00;;;;;;4997968;28;20125;-77
2023/05/05 12:06:32;;;;;;;7.45;5.43;;;23.60;75.40;;;;;;4987142;28;20129;-76
2023/05/05 12:08:59;;;;;;;7.45;3.55;;;23.50;73.90;;;;;;4979953;28;20132;-77
2023/05/05 12:11:25;;;;;;;9.27;3.37;;;23.50;72.60;;;;;;4983899;28;20058;-77
2023/05/05 12:14:09;;;;;;;8.80;4.13;;;23.30;72.00;;;;;;4986386;28;20125;-75
2023/05/05 12:16:36;;;;;;;11.82;4.32;;;23.30;72.30;;;;;;4983112;28;20054;-75
2023/05/05 12:19:06;;;;;;;12.05;4.65;;;23.20;72.90;;;;;;4983104;28;20404;-76
2023/05/05 12:21:33;;;;;;;21.55;10.30;;;23.30;73.90;;;;;;4982836;28;20039;-77
2023/05/05 12:23:59;;;;;;;14.83;9.27;;;23.10;74.20;;;;;;4987447;28;20070;-76
2023/05/05 12:26:28;;;;;;;13.82;11.02;;;23.10;75.70;;;;;;4982248;28;20310;-77
2023/05/05 12:28:54;;;;;;;14.38;12.02;;;23.00;77.70;;;;;;4988171;28;21470;-77
2023/05/05 12:31:20;;;;;;;13.85;10.70;;;22.90;77.90;;;;;;4980412;28;20049;-77
2023/05/05 12:33:47;;;;;;;13.93;9.63;;;22.80;79.20;;;;;;4986955;28;20126;-77
2023/05/05 12:36:14;;;;;;;13.00;10.35;;;22.80;80.60;;;;;;4990053;28;20078;-77